sensor_id;sensor_type;location;lat;lon;timestamp;pressure;altitude;pressure_sealevel;temperature;humidity
5879;BME280;2965;42.640;23.370;2022-09-24T00:00:38;94846.94;;;6.57;100.00
5879;BME280;2965;42.640;23.370;2022-09-24T00:03:04;94844.31;;;6.57;100.00
5879;BME280;2965;42.640;23.370;2022-09-24T00:05:29;94859.63;;;6.60;100.00
5879;BME280;2965;42.640;23.370;2022-09-24T00:07:54;94855.34;;;6.51;100.00
5879;BME280;2965;42.640;23.370;2022-09-24T00:10:20;94852.66;;;6.43;100.00
5879;BME280;2965;42.640;23.370;2022-09-24T00:12:47;94851.31;;;6.39;100.00
5879;BME280;2965;42.640;23.370;2022-09-24T00:15:12;94857.53;;;6.46;100.00
5879;BME280;2965;42.640;23.370;2022-09-24T00:17:38;94861.47;;;6.50;100.00
5879;BME280;2965;42.640;23.370;2022-09-24T00:20:03;94855.38;;;6.41;100.00
5879;BME280;2965;42.640;23.370;2022-09-24T00:22:31;94855.19;;;6.35;100.00
5879;BME280;2965;42.640;23.370;2022-09-24T00:24:56;94853.03;;;6.30;100.00
5879;BME280;2965;42.640;23.370;2022-09-24T00:27:41;94856.66;;;6.19;100.00
5879;BME280;2965;42.640;23.370;2022-09-24T00:30:06;94861.09;;;6.09;100.00
5879;BME280;2965;42.640;23.370;2022-09-24T00:32:32;94858.59;;;6.17;100.00
5879;BME280;2965;42.640;23.370;2022-09-24T00:34:57;94850.06;;;6.07;100.00
5879;BME280;2965;42.640;23.370;2022-09-24T00:37:23;94850.72;;;6.09;100.00
5879;BME280;2965;42.640;23.370;2022-09-24T00:39:49;94851.00;;;6.06;100.00
5879;BME280;2965;42.640;23.370;2022-09-24T00:42:17;94852.59;;;6.17;100.00
5879;BME280;2965;42.640;23.370;2022-09-24T00:49:46;94851.69;;;6.08;100.00
5879;BME280;2965;42.640;23.370;2022-09-24T00:52:13;94850.94;;;5.98;100.00
5879;BME280;2965;42.640;23.370;2022-09-24T00:54:39;94849.97;;;5.99;100.00
5879;BME280;2965;42.640;23.370;2022-09-24T00:57:08;94845.34;;;5.93;100.00
5879;BME280;2965;42.640;23.370;2022-09-24T00:59:34;94845.06;;;5.96;100.00
5879;BME280;2965;42.640;23.370;2022-09-24T01:02:00;94841.13;;;5.92;100.00
5879;BME280;2965;42.640;23.370;2022-09-24T01:04:27;94833.34;;;5.92;100.00
5879;BME280;2965;42.640;23.370;2022-09-24T01:06:53;94838.78;;;5.89;100.00
5879;BME280;2965;42.640;23.370;2022-09-24T01:09:21;94828.47;;;5.79;100.00
5879;BME280;2965;42.640;23.370;2022-09-24T01:25:19;94825.31;;;5.85;100.00
5879;BME280;2965;42.640;23.370;2022-09-24T01:30:46;94831.81;;;5.71;100.00
5879;BME280;2965;42.640;23.370;2022-09-24T01:33:19;94825.28;;;5.67;100.00
5879;BME280;2965;42.640;23.370;2022-09-24T01:35:50;94824.97;;;5.70;100.00
5879;BME280;2965;42.640;23.370;2022-09-24T01:38:28;94835.44;;;5.78;100.00
5879;BME280;2965;42.640;23.370;2022-09-24T01:40:57;94831.50;;;5.74;100.00
5879;BME280;2965;42.640;23.370;2022-09-24T01:43:26;94830.69;;;5.74;100.00
5879;BME280;2965;42.640;23.370;2022-09-24T01:45:55;94828.63;;;5.77;100.00
5879;BME280;2965;42.640;23.370;2022-09-24T01:48:25;94835.81;;;5.83;100.00
5879;BME280;2965;42.640;23.370;2022-09-24T01:50:57;94831.75;;;5.81;100.00
5879;BME280;2965;42.640;23.370;2022-09-24T01:53:31;94834.47;;;5.79;100.00
5879;BME280;2965;42.640;23.370;2022-09-24T01:56:07;94839.97;;;5.76;100.00
5879;BME280;2965;42.640;23.370;2022-09-24T02:01:18;94840.25;;;5.73;100.00
5879;BME280;2965;42.640;23.370;2022-09-24T02:03:50;94843.34;;;5.59;100.00
5879;BME280;2965;42.640;23.370;2022-09-24T02:06:25;94838.97;;;5.60;100.00
5879;BME280;2965;42.640;23.370;2022-09-24T02:08:55;94847.41;;;5.62;100.00
5879;BME280;2965;42.640;23.370;2022-09-24T02:11:21;94852.34;;;5.65;100.00
5879;BME280;2965;42.640;23.370;2022-09-24T02:13:55;94849.88;;;5.63;100.00
5879;BME280;2965;42.640;23.370;2022-09-24T02:16:54;94854.00;;;5.56;100.00
5879;BME280;2965;42.640;23.370;2022-09-24T02:19:23;94848.44;;;5.51;100.00
5879;BME280;2965;42.640;23.370;2022-09-24T02:21:51;94860.72;;;5.49;100.00
5879;BME280;2965;42.640;23.370;2022-09-24T02:24:23;94859.19;;;5.56;100.00
5879;BME280;2965;42.640;23.370;2022-09-24T02:26:50;94872.03;;;5.57;100.00
5879;BME280;2965;42.640;23.370;2022-09-24T02:29:16;94865.16;;;5.39;100.00
5879;BME280;2965;42.640;23.370;2022-09-24T02:31:47;94874.66;;;5.48;100.00
5879;BME280;2965;42.640;23.370;2022-09-24T02:34:17;94878.38;;;5.45;100.00
5879;BME280;2965;42.640;23.370;2022-09-24T02:39:12;94876.78;;;5.35;100.00
5879;BME280;2965;42.640;23.370;2022-09-24T02:41:39;94885.38;;;5.35;100.00
5879;BME280;2965;42.640;23.370;2022-09-24T02:44:06;94885.25;;;5.37;100.00
5879;BME280;2965;42.640;23.370;2022-09-24T02:46:32;94881.78;;;5.46;100.00
5879;BME280;2965;42.640;23.370;2022-09-24T02:48:57;94888.22;;;5.42;100.00
5879;BME280;2965;42.640;23.370;2022-09-24T02:51:23;94885.25;;;5.37;100.00
5879;BME280;2965;42.640;23.370;2022-09-24T02:53:48;94889.09;;;5.32;100.00
5879;BME280;2965;42.640;23.370;2022-09-24T02:56:14;94891.78;;;5.31;100.00
5879;BME280;2965;42.640;23.370;2022-09-24T02:58:39;94887.16;;;5.35;100.00
5879;BME280;2965;42.640;23.370;2022-09-24T03:01:05;94895.34;;;5.30;100.00
5879;BME280;2965;42.640;23.370;2022-09-24T03:03:30;94887.44;;;5.31;100.00
5879;BME280;2965;42.640;23.370;2022-09-24T03:05:56;94897.13;;;5.29;100.00
5879;BME280;2965;42.640;23.370;2022-09-24T03:08:22;94893.31;;;5.34;100.00
5879;BME280;2965;42.640;23.370;2022-09-24T03:10:49;94888.53;;;5.29;100.00
5879;BME280;2965;42.640;23.370;2022-09-24T03:13:18;94896.75;;;5.24;100.00
5879;BME280;2965;42.640;23.370;2022-09-24T03:15:46;94889.94;;;5.23;100.00
5879;BME280;2965;42.640;23.370;2022-09-24T03:18:12;94894.53;;;5.29;100.00
5879;BME280;2965;42.640;23.370;2022-09-24T03:20:38;94891.56;;;5.24;100.00
5879;BME280;2965;42.640;23.370;2022-09-24T03:23:04;94890.91;;;5.22;100.00
5879;BME280;2965;42.640;23.370;2022-09-24T03:25:29;94890.47;;;5.17;100.00
5879;BME280;2965;42.640;23.370;2022-09-24T03:27:54;94893.22;;;5.16;100.00
5879;BME280;2965;42.640;23.370;2022-09-24T03:30:20;94892.13;;;5.18;100.00
5879;BME280;2965;42.640;23.370;2022-09-24T03:33:04;94893.63;;;5.21;100.00
5879;BME280;2965;42.640;23.370;2022-09-24T03:35:29;94893.25;;;5.06;100.00
5879;BME280;2965;42.640;23.370;2022-09-24T03:37:55;94903.63;;;5.06;100.00
5879;BME280;2965;42.640;23.370;2022-09-24T03:40:20;94909.66;;;4.97;100.00
5879;BME280;2965;42.640;23.370;2022-09-24T03:42:46;94920.28;;;4.94;100.00
5879;BME280;2965;42.640;23.370;2022-09-24T03:45:11;94912.50;;;4.94;100.00
5879;BME280;2965;42.640;23.370;2022-09-24T03:47:37;94911.28;;;4.98;100.00
5879;BME280;2965;42.640;23.370;2022-09-24T03:50:03;94906.66;;;4.92;100.00
5879;BME280;2965;42.640;23.370;2022-09-24T03:52:28;94911.69;;;4.93;100.00
5879;BME280;2965;42.640;23.370;2022-09-24T03:54:54;94924.38;;;4.87;100.00
5879;BME280;2965;42.640;23.370;2022-09-24T03:57:20;94919.50;;;4.84;100.00
5879;BME280;2965;42.640;23.370;2022-09-24T03:59:45;94921.13;;;4.85;100.00
5879;BME280;2965;42.640;23.370;2022-09-24T04:02:11;94920.56;;;4.91;100.00
5879;BME280;2965;42.640;23.370;2022-09-24T04:04:37;94925.31;;;4.95;100.00
5879;BME280;2965;42.640;23.370;2022-09-24T04:07:03;94920.56;;;4.91;100.00
5879;BME280;2965;42.640;23.370;2022-09-24T04:09:28;94925.31;;;4.95;100.00
5879;BME280;2965;42.640;23.370;2022-09-24T04:11:53;94915.50;;;4.99;100.00
5879;BME280;2965;42.640;23.370;2022-09-24T04:14:19;94922.47;;;4.98;100.00
5879;BME280;2965;42.640;23.370;2022-09-24T04:16:45;94923.28;;;4.99;100.00
5879;BME280;2965;42.640;23.370;2022-09-24T04:19:14;94925.34;;;5.05;100.00
5879;BME280;2965;42.640;23.370;2022-09-24T04:21:44;94918.41;;;4.96;100.00
5879;BME280;2965;42.640;23.370;2022-09-24T04:24:09;94927.66;;;4.89;100.00
5879;BME280;2965;42.640;23.370;2022-09-24T04:26:34;94927.66;;;4.89;100.00
5879;BME280;2965;42.640;23.370;2022-09-24T04:29:00;94926.72;;;4.90;100.00
5879;BME280;2965;42.640;23.370;2022-09-24T04:31:25;94934.47;;;4.90;100.00
5879;BME280;2965;42.640;23.370;2022-09-24T04:33:56;94935.28;;;5.00;100.00
5879;BME280;2965;42.640;23.370;2022-09-24T04:36:22;94946.75;;;4.97;100.00
5879;BME280;2965;42.640;23.370;2022-09-24T04:38:47;94939.94;;;4.96;100.00
5879;BME280;2965;42.640;23.370;2022-09-24T04:41:12;94939.13;;;4.96;100.00
5879;BME280;2965;42.640;23.370;2022-09-24T04:43:40;94938.31;;;4.86;100.00
5879;BME280;2965;42.640;23.370;2022-09-24T04:46:05;94934.50;;;4.80;100.00
5879;BME280;2965;42.640;23.370;2022-09-24T04:48:33;94947.88;;;4.85;100.00
5879;BME280;2965;42.640;23.370;2022-09-24T04:51:03;94938.59;;;4.83;100.00
5879;BME280;2965;42.640;23.370;2022-09-24T04:53:31;94947.84;;;4.95;100.00
5879;BME280;2965;42.640;23.370;2022-09-24T04:55:57;94944.03;;;4.99;100.00
5879;BME280;2965;42.640;23.370;2022-09-24T04:58:24;94941.28;;;5.10;100.00
5879;BME280;2965;42.640;23.370;2022-09-24T05:00:50;94941.53;;;5.17;100.00
5879;BME280;2965;42.640;23.370;2022-09-24T05:03:15;94936.31;;;5.36;100.00
5879;BME280;2965;42.640;23.370;2022-09-24T05:05:41;94946.16;;;5.32;100.00
5879;BME280;2965;42.640;23.370;2022-09-24T05:08:07;94949.72;;;5.31;100.00
5879;BME280;2965;42.640;23.370;2022-09-24T05:10:32;94943.94;;;5.38;100.00
5879;BME280;2965;42.640;23.370;2022-09-24T05:12:58;94949.41;;;5.35;100.00
5879;BME280;2965;42.640;23.370;2022-09-24T05:15:24;94944.75;;;5.38;100.00
5879;BME280;2965;42.640;23.370;2022-09-24T05:17:49;94941.75;;;5.43;100.00
5879;BME280;2965;42.640;23.370;2022-09-24T05:20:15;94938.69;;;5.57;100.00
5879;BME280;2965;42.640;23.370;2022-09-24T05:22:42;94947.94;;;5.69;100.00
5879;BME280;2965;42.640;23.370;2022-09-24T05:25:08;94950.91;;;5.74;100.00
5879;BME280;2965;42.640;23.370;2022-09-24T05:27:33;94955.78;;;5.87;100.00
5879;BME280;2965;42.640;23.370;2022-09-24T05:30:00;94945.38;;;5.97;100.00
5879;BME280;2965;42.640;23.370;2022-09-24T05:32:25;94953.00;;;6.08;100.00
5879;BME280;2965;42.640;23.370;2022-09-24T05:34:51;94942.25;;;6.21;100.00
5879;BME280;2965;42.640;23.370;2022-09-24T05:37:17;94950.94;;;6.29;100.00
5879;BME280;2965;42.640;23.370;2022-09-24T05:39:43;94950.88;;;6.39;100.00
5879;BME280;2965;42.640;23.370;2022-09-24T05:42:11;94950.97;;;6.47;100.00
5879;BME280;2965;42.640;23.370;2022-09-24T05:44:40;94944.06;;;6.56;100.00
5879;BME280;2965;42.640;23.370;2022-09-24T05:47:08;94954.09;;;6.51;100.00
5879;BME280;2965;42.640;23.370;2022-09-24T05:49:33;94951.91;;;6.28;100.00
5879;BME280;2965;42.640;23.370;2022-09-24T05:51:59;94968.28;;;6.11;100.00
5879;BME280;2965;42.640;23.370;2022-09-24T05:54:26;94965.06;;;6.80;100.00
5879;BME280;2965;42.640;23.370;2022-09-24T05:56:52;94948.50;;;11.01;100.00
5879;BME280;2965;42.640;23.370;2022-09-24T05:59:17;94948.56;;;13.21;100.00
5879;BME280;2965;42.640;23.370;2022-09-24T06:01:42;94951.34;;;13.62;100.00
5879;BME280;2965;42.640;23.370;2022-09-24T06:04:09;94955.00;;;12.40;100.00
5879;BME280;2965;42.640;23.370;2022-09-24T06:06:37;94960.69;;;11.31;100.00
5879;BME280;2965;42.640;23.370;2022-09-24T06:09:02;94960.81;;;10.69;100.00
5879;BME280;2965;42.640;23.370;2022-09-24T06:11:30;94970.16;;;10.32;100.00
5879;BME280;2965;42.640;23.370;2022-09-24T06:14:02;94970.88;;;10.10;100.00
5879;BME280;2965;42.640;23.370;2022-09-24T06:16:28;94967.38;;;9.78;100.00
5879;BME280;2965;42.640;23.370;2022-09-24T06:18:55;94967.44;;;9.54;100.00
5879;BME280;2965;42.640;23.370;2022-09-24T06:21:21;94963.84;;;9.47;100.00
5879;BME280;2965;42.640;23.370;2022-09-24T06:23:47;94981.16;;;9.31;100.00
5879;BME280;2965;42.640;23.370;2022-09-24T06:26:13;94969.88;;;10.19;100.00
5879;BME280;2965;42.640;23.370;2022-09-24T06:28:39;94971.06;;;11.02;100.00
5879;BME280;2965;42.640;23.370;2022-09-24T06:31:06;94976.59;;;10.53;100.00
5879;BME280;2965;42.640;23.370;2022-09-24T06:33:32;94975.66;;;9.90;100.00
5879;BME280;2965;42.640;23.370;2022-09-24T06:36:02;94984.75;;;9.39;100.00
5879;BME280;2965;42.640;23.370;2022-09-24T06:38:29;94984.06;;;9.20;100.00
5879;BME280;2965;42.640;23.370;2022-09-24T06:40:59;94988.16;;;9.06;100.00
5879;BME280;2965;42.640;23.370;2022-09-24T06:43:25;94998.34;;;8.51;100.00
5879;BME280;2965;42.640;23.370;2022-09-24T06:45:53;94989.72;;;8.58;100.00
5879;BME280;2965;42.640;23.370;2022-09-24T06:48:19;94985.34;;;8.75;100.00
5879;BME280;2965;42.640;23.370;2022-09-24T06:50:47;94982.41;;;8.70;100.00
5879;BME280;2965;42.640;23.370;2022-09-24T06:53:13;94993.84;;;8.77;100.00
5879;BME280;2965;42.640;23.370;2022-09-24T06:55:38;94980.81;;;8.94;100.00
5879;BME280;2965;42.640;23.370;2022-09-24T06:58:09;94988.97;;;9.07;100.00
5879;BME280;2965;42.640;23.370;2022-09-24T07:00:36;94993.56;;;9.13;100.00
5879;BME280;2965;42.640;23.370;2022-09-24T07:03:03;94987.34;;;9.22;100.00
5879;BME280;2965;42.640;23.370;2022-09-24T07:05:28;94989.47;;;9.27;100.00
5879;BME280;2965;42.640;23.370;2022-09-24T07:07:54;94993.72;;;9.20;100.00
5879;BME280;2965;42.640;23.370;2022-09-24T07:10:19;94988.66;;;9.10;100.00
5879;BME280;2965;42.640;23.370;2022-09-24T07:12:45;94993.06;;;9.26;100.00
5879;BME280;2965;42.640;23.370;2022-09-24T07:15:10;94997.13;;;9.28;100.00
5879;BME280;2965;42.640;23.370;2022-09-24T07:17:36;94994.88;;;9.17;100.00
5879;BME280;2965;42.640;23.370;2022-09-24T07:20:03;94991.28;;;9.34;100.00
5879;BME280;2965;42.640;23.370;2022-09-24T07:22:28;94984.72;;;9.47;100.00
5879;BME280;2965;42.640;23.370;2022-09-24T07:24:54;94986.19;;;9.57;100.00
5879;BME280;2965;42.640;23.370;2022-09-24T07:27:19;94982.72;;;9.73;100.00
5879;BME280;2965;42.640;23.370;2022-09-24T07:29:48;94981.75;;;9.74;100.00
5879;BME280;2965;42.640;23.370;2022-09-24T07:32:16;94980.75;;;9.83;100.00
5879;BME280;2965;42.640;23.370;2022-09-24T07:34:42;94978.28;;;9.82;100.00
5879;BME280;2965;42.640;23.370;2022-09-24T07:37:07;94984.28;;;10.07;100.00
5879;BME280;2965;42.640;23.370;2022-09-24T07:39:33;94983.25;;;10.16;100.00
5879;BME280;2965;42.640;23.370;2022-09-24T07:41:59;94978.69;;;10.18;100.00
5879;BME280;2965;42.640;23.370;2022-09-24T07:44:26;94976.38;;;10.23;100.00
5879;BME280;2965;42.640;23.370;2022-09-24T07:46:53;94969.81;;;10.35;100.00
5879;BME280;2965;42.640;23.370;2022-09-24T07:49:19;94974.66;;;10.47;100.00
5879;BME280;2965;42.640;23.370;2022-09-24T07:51:44;94966.09;;;10.61;100.00
5879;BME280;2965;42.640;23.370;2022-09-24T07:54:10;94977.47;;;10.76;100.00
5879;BME280;2965;42.640;23.370;2022-09-24T07:56:36;94978.84;;;10.87;100.00
5879;BME280;2965;42.640;23.370;2022-09-24T07:59:04;94972.56;;;10.96;100.00
5879;BME280;2965;42.640;23.370;2022-09-24T08:01:35;94971.19;;;10.85;100.00
5879;BME280;2965;42.640;23.370;2022-09-24T08:04:01;94972.03;;;11.01;100.00
5879;BME280;2965;42.640;23.370;2022-09-24T08:06:28;94971.41;;;11.22;100.00
5879;BME280;2965;42.640;23.370;2022-09-24T08:08:57;94974.88;;;11.37;100.00
5879;BME280;2965;42.640;23.370;2022-09-24T08:11:22;94969.59;;;11.22;100.00
5879;BME280;2965;42.640;23.370;2022-09-24T08:13:48;94958.97;;;11.01;100.00
5879;BME280;2965;42.640;23.370;2022-09-24T08:16:13;94968.34;;;11.33;100.00
5879;BME280;2965;42.640;23.370;2022-09-24T08:18:41;94972.50;;;11.65;100.00
5879;BME280;2965;42.640;23.370;2022-09-24T08:21:09;94972.50;;;11.65;100.00
5879;BME280;2965;42.640;23.370;2022-09-24T08:23:36;94969.31;;;11.93;100.00
5879;BME280;2965;42.640;23.370;2022-09-24T08:26:02;94977.34;;;12.21;100.00
5879;BME280;2965;42.640;23.370;2022-09-24T08:28:28;94979.41;;;12.25;100.00
5879;BME280;2965;42.640;23.370;2022-09-24T08:30:58;94972.38;;;12.41;100.00
5879;BME280;2965;42.640;23.370;2022-09-24T08:33:25;94963.28;;;12.58;100.00
5879;BME280;2965;42.640;23.370;2022-09-24T08:35:51;94967.00;;;12.85;100.00
5879;BME280;2965;42.640;23.370;2022-09-24T08:38:16;94961.56;;;12.86;100.00
5879;BME280;2965;42.640;23.370;2022-09-24T08:40:44;94967.94;;;12.77;96.32
5879;BME280;2965;42.640;23.370;2022-09-24T08:43:39;94965.81;;;12.87;98.98
5879;BME280;2965;42.640;23.370;2022-09-24T08:46:37;94965.69;;;12.96;97.29
5879;BME280;2965;42.640;23.370;2022-09-24T08:49:44;94965.81;;;13.09;93.92
5879;BME280;2965;42.640;23.370;2022-09-24T08:54:54;94965.47;;;13.55;90.77
5879;BME280;2965;42.640;23.370;2022-09-24T08:57:23;94955.06;;;13.68;85.83
5879;BME280;2965;42.640;23.370;2022-09-24T08:59:51;94950.63;;;13.75;88.35
5879;BME280;2965;42.640;23.370;2022-09-24T09:07:51;94944.13;;;14.41;79.47
5879;BME280;2965;42.640;23.370;2022-09-24T09:10:25;94939.34;;;14.57;75.46
5879;BME280;2965;42.640;23.370;2022-09-24T09:13:04;94936.72;;;14.64;78.76
5879;BME280;2965;42.640;23.370;2022-09-24T09:15:35;94941.69;;;15.07;78.72
5879;BME280;2965;42.640;23.370;2022-09-24T09:18:12;94938.09;;;15.28;68.51
5879;BME280;2965;42.640;23.370;2022-09-24T09:20:43;94937.88;;;15.36;73.16
5879;BME280;2965;42.640;23.370;2022-09-24T09:23:19;94936.25;;;15.61;74.05
5879;BME280;2965;42.640;23.370;2022-09-24T09:25:54;94934.19;;;15.97;61.66
5879;BME280;2965;42.640;23.370;2022-09-24T09:28:20;94937.75;;;16.35;62.62
5879;BME280;2965;42.640;23.370;2022-09-24T09:33:42;94921.63;;;16.57;59.95
5879;BME280;2965;42.640;23.370;2022-09-24T09:39:13;94922.91;;;16.93;53.12
5879;BME280;2965;42.640;23.370;2022-09-24T09:44:23;94910.09;;;17.21;54.44
5879;BME280;2965;42.640;23.370;2022-09-24T09:46:54;94897.97;;;17.63;65.25
5879;BME280;2965;42.640;23.370;2022-09-24T09:49:25;94895.00;;;17.78;63.17
5879;BME280;2965;42.640;23.370;2022-09-24T09:51:56;94892.16;;;17.80;52.11
5879;BME280;2965;42.640;23.370;2022-09-24T09:54:35;94898.84;;;18.37;56.89
5879;BME280;2965;42.640;23.370;2022-09-24T09:57:01;94892.50;;;17.83;52.99
5879;BME280;2965;42.640;23.370;2022-09-24T09:59:28;94882.97;;;18.37;69.20
5879;BME280;2965;42.640;23.370;2022-09-24T10:01:55;94889.22;;;18.92;51.48
5879;BME280;2965;42.640;23.370;2022-09-24T10:07:10;94871.78;;;19.37;53.41
5879;BME280;2965;42.640;23.370;2022-09-24T10:09:37;94865.03;;;19.77;51.93
5879;BME280;2965;42.640;23.370;2022-09-24T10:12:20;94867.41;;;19.55;46.97
5879;BME280;2965;42.640;23.370;2022-09-24T10:15:17;94873.38;;;19.38;46.04
5879;BME280;2965;42.640;23.370;2022-09-24T10:17:44;94869.94;;;19.50;47.54
5879;BME280;2965;42.640;23.370;2022-09-24T10:20:22;94866.06;;;19.64;45.48
5879;BME280;2965;42.640;23.370;2022-09-24T10:22:58;94861.06;;;20.03;46.51
5879;BME280;2965;42.640;23.370;2022-09-24T10:25:26;94863.47;;;20.16;47.34
5879;BME280;2965;42.640;23.370;2022-09-24T10:27:56;94855.66;;;19.98;43.95
5879;BME280;2965;42.640;23.370;2022-09-24T10:31:21;94859.94;;;19.63;46.27
5879;BME280;2965;42.640;23.370;2022-09-24T10:33:52;94852.91;;;19.69;49.04
5879;BME280;2965;42.640;23.370;2022-09-24T10:36:23;94846.19;;;19.55;46.61
5879;BME280;2965;42.640;23.370;2022-09-24T10:39:07;94846.78;;;19.80;46.70
5879;BME280;2965;42.640;23.370;2022-09-24T10:41:45;94850.69;;;20.01;43.98
5879;BME280;2965;42.640;23.370;2022-09-24T10:44:11;94850.47;;;20.55;46.05
5879;BME280;2965;42.640;23.370;2022-09-24T10:49:51;94851.53;;;21.16;42.53
5879;BME280;2965;42.640;23.370;2022-09-24T10:52:45;94838.50;;;20.69;41.93
5879;BME280;2965;42.640;23.370;2022-09-24T11:01:21;94835.13;;;21.53;41.58
5879;BME280;2965;42.640;23.370;2022-09-24T11:04:10;94837.19;;;21.84;40.60
5879;BME280;2965;42.640;23.370;2022-09-24T11:06:49;94836.63;;;22.21;43.18
5879;BME280;2965;42.640;23.370;2022-09-24T11:09:37;94830.03;;;22.07;46.39
5879;BME280;2965;42.640;23.370;2022-09-24T11:12:11;94814.28;;;21.83;39.99
5879;BME280;2965;42.640;23.370;2022-09-24T11:17:24;94813.00;;;21.69;42.85
5879;BME280;2965;42.640;23.370;2022-09-24T11:22:48;94820.16;;;22.07;40.69
5879;BME280;2965;42.640;23.370;2022-09-24T11:56:01;94778.44;;;24.01;32.63
5879;BME280;2965;42.640;23.370;2022-09-24T11:58:38;94776.66;;;24.27;33.04
5879;BME280;2965;42.640;23.370;2022-09-24T12:01:34;94772.25;;;24.63;34.13
5879;BME280;2965;42.640;23.370;2022-09-24T12:04:08;94770.59;;;24.52;32.94
5879;BME280;2965;42.640;23.370;2022-09-24T12:06:52;94770.88;;;24.40;31.16
5879;BME280;2965;42.640;23.370;2022-09-24T12:09:39;94772.19;;;24.48;31.19
5879;BME280;2965;42.640;23.370;2022-09-24T12:12:10;94774.16;;;24.93;32.40
5879;BME280;2965;42.640;23.370;2022-09-24T12:17:16;94765.34;;;25.18;31.64
5879;BME280;2965;42.640;23.370;2022-09-24T12:22:37;94766.31;;;25.99;30.63
5879;BME280;2965;42.640;23.370;2022-09-24T12:25:04;94766.88;;;25.90;32.66
5879;BME280;2965;42.640;23.370;2022-09-24T12:27:35;94770.66;;;25.79;32.17
5879;BME280;2965;42.640;23.370;2022-09-24T12:37:53;94768.22;;;24.65;31.38
5879;BME280;2965;42.640;23.370;2022-09-24T12:40:34;94767.47;;;24.75;30.26
5879;BME280;2965;42.640;23.370;2022-09-24T12:43:18;94768.53;;;24.79;31.20
5879;BME280;2965;42.640;23.370;2022-09-24T12:45:54;94765.34;;;25.18;29.97
5879;BME280;2965;42.640;23.370;2022-09-24T12:48:23;94772.00;;;25.56;30.21
5879;BME280;2965;42.640;23.370;2022-09-24T12:50:58;94765.91;;;25.15;30.42
5879;BME280;2965;42.640;23.370;2022-09-24T12:53:35;94756.22;;;24.99;28.77
5879;BME280;2965;42.640;23.370;2022-09-24T12:56:03;94759.66;;;24.53;28.75
5879;BME280;2965;42.640;23.370;2022-09-24T12:58:36;94749.81;;;24.84;32.62
5879;BME280;2965;42.640;23.370;2022-09-24T13:06:40;94730.00;;;25.36;31.04
5879;BME280;2965;42.640;23.370;2022-09-24T13:09:33;94736.41;;;25.40;30.55
5879;BME280;2965;42.640;23.370;2022-09-24T13:14:41;94734.19;;;25.83;28.33
5879;BME280;2965;42.640;23.370;2022-09-24T13:17:13;94735.81;;;25.79;28.13
5879;BME280;2965;42.640;23.370;2022-09-24T13:19:41;94739.03;;;25.86;28.95
5879;BME280;2965;42.640;23.370;2022-09-24T13:22:21;94733.41;;;25.62;29.33
5879;BME280;2965;42.640;23.370;2022-09-24T13:27:33;94733.94;;;25.90;28.92
5879;BME280;2965;42.640;23.370;2022-09-24T13:32:41;94730.06;;;26.66;28.60
5879;BME280;2965;42.640;23.370;2022-09-24T13:35:14;94713.75;;;26.08;28.79
5879;BME280;2965;42.640;23.370;2022-09-24T13:37:48;94725.09;;;25.74;28.64
5879;BME280;2965;42.640;23.370;2022-09-24T13:40:27;94721.41;;;26.25;29.02
5879;BME280;2965;42.640;23.370;2022-09-24T13:43:03;94714.22;;;27.04;29.13
5879;BME280;2965;42.640;23.370;2022-09-24T13:45:29;94715.22;;;26.29;28.67
5879;BME280;2965;42.640;23.370;2022-09-24T13:48:05;94707.44;;;26.33;28.85
5879;BME280;2965;42.640;23.370;2022-09-24T13:50:48;94704.56;;;26.19;29.63
5879;BME280;2965;42.640;23.370;2022-09-24T13:53:20;94703.50;;;26.15;28.80
5879;BME280;2965;42.640;23.370;2022-09-24T13:55:53;94703.75;;;25.49;28.00
5879;BME280;2965;42.640;23.370;2022-09-24T13:58:34;94700.50;;;25.62;28.73
5879;BME280;2965;42.640;23.370;2022-09-24T14:01:02;94694.44;;;24.80;31.11
5879;BME280;2965;42.640;23.370;2022-09-24T14:03:29;94693.91;;;25.29;31.43
5879;BME280;2965;42.640;23.370;2022-09-24T14:05:56;94696.56;;;25.34;31.40
5879;BME280;2965;42.640;23.370;2022-09-24T14:08:22;94696.31;;;24.95;29.80
5879;BME280;2965;42.640;23.370;2022-09-24T14:10:49;94700.00;;;24.48;30.06
5879;BME280;2965;42.640;23.370;2022-09-24T14:13:19;94695.78;;;25.03;30.36
5879;BME280;2965;42.640;23.370;2022-09-24T14:15:56;94701.13;;;24.98;31.02
5879;BME280;2965;42.640;23.370;2022-09-24T14:18:23;94692.88;;;23.80;30.88
5879;BME280;2965;42.640;23.370;2022-09-24T14:21:04;94699.34;;;23.00;32.38
5879;BME280;2965;42.640;23.370;2022-09-24T14:23:53;94698.75;;;22.92;34.85
5879;BME280;2965;42.640;23.370;2022-09-24T14:26:27;94690.97;;;22.54;34.97
5879;BME280;2965;42.640;23.370;2022-09-24T14:28:57;94688.41;;;22.69;41.96
5879;BME280;2965;42.640;23.370;2022-09-24T14:31:24;94685.31;;;22.82;40.79
5879;BME280;2965;42.640;23.370;2022-09-24T14:33:49;94681.97;;;22.65;36.40
5879;BME280;2965;42.640;23.370;2022-09-24T14:36:15;94684.09;;;22.63;36.53
5879;BME280;2965;42.640;23.370;2022-09-24T14:38:55;94688.06;;;22.92;44.46
5879;BME280;2965;42.640;23.370;2022-09-24T14:41:24;94679.94;;;22.77;40.47
5879;BME280;2965;42.640;23.370;2022-09-24T14:44:11;94682.13;;;22.21;36.78
5879;BME280;2965;42.640;23.370;2022-09-24T14:46:51;94693.84;;;22.52;42.95
5879;BME280;2965;42.640;23.370;2022-09-24T14:49:29;94692.88;;;22.58;52.67
5879;BME280;2965;42.640;23.370;2022-09-24T14:52:01;94698.88;;;22.49;52.83
5879;BME280;2965;42.640;23.370;2022-09-24T14:54:35;94695.25;;;22.60;50.11
5879;BME280;2965;42.640;23.370;2022-09-24T14:59:42;94687.16;;;22.45;56.77
5879;BME280;2965;42.640;23.370;2022-09-24T15:02:17;94684.63;;;21.84;47.66
5879;BME280;2965;42.640;23.370;2022-09-24T15:04:53;94691.44;;;21.97;53.21
5879;BME280;2965;42.640;23.370;2022-09-24T15:07:24;94695.06;;;22.12;53.78
5879;BME280;2965;42.640;23.370;2022-09-24T15:09:52;94694.13;;;22.02;44.52
5879;BME280;2965;42.640;23.370;2022-09-24T15:12:38;94689.66;;;22.29;51.15
5879;BME280;2965;42.640;23.370;2022-09-24T15:15:27;94695.69;;;22.47;53.70
5879;BME280;2965;42.640;23.370;2022-09-24T15:17:53;94691.84;;;22.64;57.60
5879;BME280;2965;42.640;23.370;2022-09-24T15:20:19;94686.38;;;22.81;52.63
5879;BME280;2965;42.640;23.370;2022-09-24T15:22:45;94698.75;;;22.92;43.17
5879;BME280;2965;42.640;23.370;2022-09-24T15:25:12;94694.06;;;23.10;54.34